sensor_id;sensor_type;location;lat;lon;timestamp;pressure;altitude;pressure_sealevel;temperature;humidity
40205;BME280;26963;42.666;23.366;2023-10-08T00:00:45;95348.56;;;15.62;37.86
40205;BME280;26963;42.666;23.366;2023-10-08T00:03:19;95410.06;;;15.92;38.32
40205;BME280;26963;42.666;23.366;2023-10-08T00:05:54;95399.91;;;15.89;38.38
40205;BME280;26963;42.666;23.366;2023-10-08T00:08:19;95336.78;;;15.49;38.67
40205;BME280;26963;42.666;23.366;2023-10-08T00:10:45;95380.97;;;15.80;38.64
40205;BME280;26963;42.666;23.366;2023-10-08T00:13:12;95376.66;;;15.70;38.86
40205;BME280;26963;42.666;23.366;2023-10-08T00:15:42;95386.88;;;15.82;39.15
40205;BME280;26963;42.666;23.366;2023-10-08T00:18:15;95349.81;;;15.56;39.02
40205;BME280;26963;42.666;23.366;2023-10-08T00:20:42;95381.75;;;15.80;39.16
40205;BME280;26963;42.666;23.366;2023-10-08T00:23:12;95371.56;;;15.60;38.94
40205;BME280;26963;42.666;23.366;2023-10-08T00:25:40;95376.81;;;15.65;39.02
40205;BME280;26963;42.666;23.366;2023-10-08T00:28:09;95334.69;;;15.29;38.86
40205;BME280;26963;42.666;23.366;2023-10-08T00:30:40;95378.84;;;15.51;38.94
40205;BME280;26963;42.666;23.366;2023-10-08T00:33:10;95389.09;;;15.40;39.16
40205;BME280;26963;42.666;23.366;2023-10-08T00:35:39;95386.38;;;15.31;39.46
40205;BME280;26963;42.666;23.366;2023-10-08T00:38:07;95366.13;;;15.11;38.91
40205;BME280;26963;42.666;23.366;2023-10-08T00:40:42;95328.09;;;14.72;39.17
40205;BME280;26963;42.666;23.366;2023-10-08T00:45:57;95357.31;;;14.88;39.68
40205;BME280;26963;42.666;23.366;2023-10-08T00:48:25;95371.03;;;15.00;40.55
40205;BME280;26963;42.666;23.366;2023-10-08T00:50:57;95320.13;;;14.67;40.41
40205;BME280;26963;42.666;23.366;2023-10-08T00:53:40;95331.63;;;14.81;40.27
40205;BME280;26963;42.666;23.366;2023-10-08T00:56:09;95351.97;;;14.96;40.15
40205;BME280;26963;42.666;23.366;2023-10-08T00:58:41;95359.00;;;15.06;40.26
40205;BME280;26963;42.666;23.366;2023-10-08T01:01:06;95349.63;;;15.04;39.49
40205;BME280;26963;42.666;23.366;2023-10-08T01:03:36;95369.16;;;15.09;39.57
40205;BME280;26963;42.666;23.366;2023-10-08T01:06:04;95334.34;;;14.90;39.36
40205;BME280;26963;42.666;23.366;2023-10-08T01:08:35;95373.41;;;15.02;40.14
40205;BME280;26963;42.666;23.366;2023-10-08T01:11:21;95366.41;;;15.00;39.67
40205;BME280;26963;42.666;23.366;2023-10-08T01:14:05;95337.00;;;14.81;39.28
40205;BME280;26963;42.666;23.366;2023-10-08T01:16:33;95299.63;;;14.57;39.35
40205;BME280;26963;42.666;23.366;2023-10-08T01:19:01;95305.53;;;14.68;40.13
40205;BME280;26963;42.666;23.366;2023-10-08T01:21:30;95304.94;;;14.71;39.86
40205;BME280;26963;42.666;23.366;2023-10-08T01:24:02;95354.56;;;15.10;40.16
40205;BME280;26963;42.666;23.366;2023-10-08T01:26:31;95367.59;;;15.17;40.19
40205;BME280;26963;42.666;23.366;2023-10-08T01:28:58;95344.25;;;15.04;40.58
40205;BME280;26963;42.666;23.366;2023-10-08T01:31:28;95359.50;;;15.17;39.41
40205;BME280;26963;42.666;23.366;2023-10-08T01:33:55;95317.03;;;14.82;39.04
40205;BME280;26963;42.666;23.366;2023-10-08T01:36:26;95342.94;;;14.92;38.94
40205;BME280;26963;42.666;23.366;2023-10-08T01:38:53;95356.09;;;14.94;39.34
40205;BME280;26963;42.666;23.366;2023-10-08T01:41:21;95364.81;;;14.99;39.41
40205;BME280;26963;42.666;23.366;2023-10-08T01:43:58;95352.09;;;14.91;39.61
40205;BME280;26963;42.666;23.366;2023-10-08T01:46:24;95315.72;;;14.71;39.92
40205;BME280;26963;42.666;23.366;2023-10-08T01:48:53;95236.84;;;14.16;39.73
40205;BME280;26963;42.666;23.366;2023-10-08T01:51:27;95343.84;;;14.88;40.34
40205;BME280;26963;42.666;23.366;2023-10-08T01:54:04;95326.34;;;14.76;40.62
40205;BME280;26963;42.666;23.366;2023-10-08T01:56:48;95351.84;;;15.02;40.78
40205;BME280;26963;42.666;23.366;2023-10-08T01:59:15;95348.31;;;14.92;40.32
40205;BME280;26963;42.666;23.366;2023-10-08T02:01:41;95347.69;;;14.95;39.87
40205;BME280;26963;42.666;23.366;2023-10-08T02:04:09;95369.41;;;14.99;40.63
40205;BME280;26963;42.666;23.366;2023-10-08T02:06:35;95364.03;;;14.99;39.96
40205;BME280;26963;42.666;23.366;2023-10-08T02:09:01;95361.34;;;14.99;39.84
40205;BME280;26963;42.666;23.366;2023-10-08T02:11:46;95357.03;;;14.98;39.71
40205;BME280;26963;42.666;23.366;2023-10-08T02:14:15;95354.84;;;15.00;39.25
40205;BME280;26963;42.666;23.366;2023-10-08T02:16:43;95342.13;;;14.92;39.53
40205;BME280;26963;42.666;23.366;2023-10-08T02:19:09;95347.69;;;14.95;39.21
40205;BME280;26963;42.666;23.366;2023-10-08T02:21:39;95330.97;;;14.84;38.70
40205;BME280;26963;42.666;23.366;2023-10-08T02:24:12;95342.97;;;15.01;38.96
40205;BME280;26963;42.666;23.366;2023-10-08T02:26:40;95330.56;;;14.91;38.71
40205;BME280;26963;42.666;23.366;2023-10-08T02:29:09;95325.00;;;14.88;38.80
40205;BME280;26963;42.666;23.366;2023-10-08T02:31:40;95266.75;;;14.46;37.57
40205;BME280;26963;42.666;23.366;2023-10-08T02:34:06;95350.06;;;14.97;37.47
40205;BME280;26963;42.666;23.366;2023-10-08T02:36:36;95253.88;;;14.34;37.34
40205;BME280;26963;42.666;23.366;2023-10-08T02:39:03;95292.81;;;14.60;37.43
40205;BME280;26963;42.666;23.366;2023-10-08T02:41:43;95330.38;;;14.88;38.44
40205;BME280;26963;42.666;23.366;2023-10-08T02:44:12;95344.50;;;14.93;37.58
40205;BME280;26963;42.666;23.366;2023-10-08T02:46:42;95344.50;;;14.93;37.70
40205;BME280;26963;42.666;23.366;2023-10-08T02:49:10;95229.72;;;14.21;37.37
40205;BME280;26963;42.666;23.366;2023-10-08T02:51:42;95305.91;;;14.75;37.66
40205;BME280;26963;42.666;23.366;2023-10-08T02:54:11;95326.09;;;14.87;38.25
40205;BME280;26963;42.666;23.366;2023-10-08T02:56:50;95292.88;;;14.68;38.64
40205;BME280;26963;42.666;23.366;2023-10-08T02:59:20;95338.31;;;14.93;39.32
40205;BME280;26963;42.666;23.366;2023-10-08T03:01:49;95347.38;;;14.97;40.44
40205;BME280;26963;42.666;23.366;2023-10-08T03:04:22;95349.09;;;14.93;40.75
40205;BME280;26963;42.666;23.366;2023-10-08T03:06:49;95344.44;;;14.84;40.65
40205;BME280;26963;42.666;23.366;2023-10-08T03:09:19;95340.13;;;14.75;40.92
40205;BME280;26963;42.666;23.366;2023-10-08T03:11:57;95312.75;;;14.59;41.20
40205;BME280;26963;42.666;23.366;2023-10-08T03:14:23;95292.41;;;14.44;41.19
40205;BME280;26963;42.666;23.366;2023-10-08T03:16:53;95290.03;;;14.42;41.02
40205;BME280;26963;42.666;23.366;2023-10-08T03:19:21;95284.09;;;14.31;41.03
40205;BME280;26963;42.666;23.366;2023-10-08T03:21:49;95340.88;;;14.66;41.25
40205;BME280;26963;42.666;23.366;2023-10-08T03:24:21;95312.66;;;14.41;41.79
40205;BME280;26963;42.666;23.366;2023-10-08T03:27:03;95352.69;;;14.57;41.65
40205;BME280;26963;42.666;23.366;2023-10-08T03:29:36;95311.06;;;14.40;41.81
40205;BME280;26963;42.666;23.366;2023-10-08T03:32:12;95344.69;;;14.51;41.91
40205;BME280;26963;42.666;23.366;2023-10-08T03:34:48;95315.97;;;14.38;41.91
40205;BME280;26963;42.666;23.366;2023-10-08T03:37:18;95338.97;;;14.44;41.90
40205;BME280;26963;42.666;23.366;2023-10-08T03:39:50;95272.97;;;14.01;42.06
40205;BME280;26963;42.666;23.366;2023-10-08T03:42:23;95284.91;;;14.09;42.16
40205;BME280;26963;42.666;23.366;2023-10-08T03:44:50;95328.47;;;14.34;42.06
40205;BME280;26963;42.666;23.366;2023-10-08T03:47:21;95328.59;;;14.29;42.25
40205;BME280;26963;42.666;23.366;2023-10-08T03:49:52;95309.63;;;14.11;42.47
40205;BME280;26963;42.666;23.366;2023-10-08T03:52:19;95328.78;;;14.18;42.60
40205;BME280;26963;42.666;23.366;2023-10-08T03:54:51;95328.31;;;14.16;42.36
40205;BME280;26963;42.666;23.366;2023-10-08T03:57:32;95265.31;;;13.72;42.05
40205;BME280;26963;42.666;23.366;2023-10-08T04:00:11;95324.47;;;14.09;41.80
40205;BME280;26963;42.666;23.366;2023-10-08T04:02:54;95309.94;;;13.96;41.65
40205;BME280;26963;42.666;23.366;2023-10-08T04:05:22;95305.06;;;13.98;41.84
40205;BME280;26963;42.666;23.366;2023-10-08T04:07:53;95304.47;;;14.01;42.12
40205;BME280;26963;42.666;23.366;2023-10-08T04:10:25;95257.38;;;13.67;42.46
40205;BME280;26963;42.666;23.366;2023-10-08T04:13:06;95296.13;;;13.89;42.63
40205;BME280;26963;42.666;23.366;2023-10-08T04:15:38;95300.13;;;13.91;42.85
40205;BME280;26963;42.666;23.366;2023-10-08T04:18:11;95325.00;;;13.97;42.71
40205;BME280;26963;42.666;23.366;2023-10-08T04:20:40;95309.69;;;13.83;42.56
40205;BME280;26963;42.666;23.366;2023-10-08T04:23:24;95306.13;;;13.74;42.77
40205;BME280;26963;42.666;23.366;2023-10-08T04:25:50;95309.75;;;13.69;42.75
40205;BME280;26963;42.666;23.366;2023-10-08T04:28:22;95302.56;;;13.65;42.93
40205;BME280;26963;42.666;23.366;2023-10-08T04:30:52;95293.25;;;13.48;43.48
40205;BME280;26963;42.666;23.366;2023-10-08T04:33:17;95158.41;;;12.40;43.85
40205;BME280;26963;42.666;23.366;2023-10-08T04:35:45;95311.94;;;13.26;44.39
40205;BME280;26963;42.666;23.366;2023-10-08T04:38:14;95312.16;;;13.15;44.74
40205;BME280;26963;42.666;23.366;2023-10-08T04:40:43;95265.41;;;12.75;45.09
40205;BME280;26963;42.666;23.366;2023-10-08T04:43:18;95315.16;;;13.14;45.06
40205;BME280;26963;42.666;23.366;2023-10-08T04:45:54;95294.25;;;13.11;45.01
40205;BME280;26963;42.666;23.366;2023-10-08T04:48:26;95330.66;;;13.31;44.87
40205;BME280;26963;42.666;23.366;2023-10-08T04:50:58;95336.03;;;13.31;44.65
40205;BME280;26963;42.666;23.366;2023-10-08T04:53:32;95321.72;;;13.21;44.66
40205;BME280;26963;42.666;23.366;2023-10-08T04:56:02;95317.53;;;13.15;44.90
40205;BME280;26963;42.666;23.366;2023-10-08T04:58:34;95329.66;;;13.27;44.87
40205;BME280;26963;42.666;23.366;2023-10-08T05:01:06;95306.16;;;13.18;45.01
40205;BME280;26963;42.666;23.366;2023-10-08T05:03:56;95299.72;;;13.19;45.08
40205;BME280;26963;42.666;23.366;2023-10-08T05:06:30;95328.28;;;13.43;45.16
40205;BME280;26963;42.666;23.366;2023-10-08T05:09:06;95272.94;;;13.14;45.13
40205;BME280;26963;42.666;23.366;2023-10-08T05:11:45;95340.44;;;13.54;44.92
40205;BME280;26963;42.666;23.366;2023-10-08T05:14:23;95320.91;;;13.49;44.94
40205;BME280;26963;42.666;23.366;2023-10-08T05:17:06;95333.25;;;13.64;44.86
40205;BME280;26963;42.666;23.366;2023-10-08T05:19:37;95304.00;;;13.48;44.56
40205;BME280;26963;42.666;23.366;2023-10-08T05:22:07;95290.25;;;13.36;44.50
40205;BME280;26963;42.666;23.366;2023-10-08T05:24:51;95333.25;;;13.64;44.48
40205;BME280;26963;42.666;23.366;2023-10-08T05:27:40;95334.63;;;13.75;44.14
40205;BME280;26963;42.666;23.366;2023-10-08T05:30:24;95330.41;;;13.83;44.04
40205;BME280;26963;42.666;23.366;2023-10-08T05:32:57;95338.38;;;13.88;44.28
40205;BME280;26963;42.666;23.366;2023-10-08T05:35:47;95328.09;;;13.90;44.33
40205;BME280;26963;42.666;23.366;2023-10-08T05:38:19;95290.41;;;13.67;44.51
40205;BME280;26963;42.666;23.366;2023-10-08T05:40:52;95322.41;;;13.92;44.53
40205;BME280;26963;42.666;23.366;2023-10-08T05:43:27;95330.25;;;14.02;44.18
40205;BME280;26963;42.666;23.366;2023-10-08T05:46:05;95342.88;;;14.15;44.28
40205;BME280;26963;42.666;23.366;2023-10-08T05:48:57;95355.91;;;14.22;43.89
40205;BME280;26963;42.666;23.366;2023-10-08T05:51:37;95283.66;;;13.93;44.14
40205;BME280;26963;42.666;23.366;2023-10-08T05:54:12;95300.06;;;14.05;43.93
40205;BME280;26963;42.666;23.366;2023-10-08T05:56:57;95342.13;;;14.46;43.09
40205;BME280;26963;42.666;23.366;2023-10-08T06:02:24;95339.03;;;14.53;42.99
40205;BME280;26963;42.666;23.366;2023-10-08T06:04:57;95292.47;;;14.30;42.92
40205;BME280;26963;42.666;23.366;2023-10-08T06:07:50;95297.13;;;14.38;42.71
40205;BME280;26963;42.666;23.366;2023-10-08T06:10:27;95347.16;;;14.84;41.67
40205;BME280;26963;42.666;23.366;2023-10-08T06:12:57;95292.31;;;14.58;41.21
40205;BME280;26963;42.666;23.366;2023-10-08T06:15:36;95332.94;;;14.93;41.60
40205;BME280;26963;42.666;23.366;2023-10-08T06:18:30;95333.63;;;15.07;41.25
40205;BME280;26963;42.666;23.366;2023-10-08T06:20:58;95341.88;;;15.11;41.58
40205;BME280;26963;42.666;23.366;2023-10-08T06:23:26;95342.06;;;15.14;41.29
40205;BME280;26963;42.666;23.366;2023-10-08T06:25:54;95336.88;;;15.27;41.07
40205;BME280;26963;42.666;23.366;2023-10-08T06:28:26;95337.72;;;15.45;40.66
40205;BME280;26963;42.666;23.366;2023-10-08T06:30:53;95339.84;;;15.57;41.40
40205;BME280;26963;42.666;23.366;2023-10-08T06:33:24;95349.75;;;15.88;40.11
40205;BME280;26963;42.666;23.366;2023-10-08T06:35:52;95307.22;;;15.85;40.29
40205;BME280;26963;42.666;23.366;2023-10-08T06:38:29;95249.38;;;15.68;39.03
40205;BME280;26963;42.666;23.366;2023-10-08T06:40:58;95342.13;;;16.42;39.17
40205;BME280;26963;42.666;23.366;2023-10-08T06:43:34;95340.03;;;16.66;38.33
40205;BME280;26963;42.666;23.366;2023-10-08T06:46:02;95323.75;;;17.01;38.02
40205;BME280;26963;42.666;23.366;2023-10-08T06:48:48;95328.81;;;17.50;37.61
40205;BME280;26963;42.666;23.366;2023-10-08T06:51:15;95316.44;;;17.91;36.96
40205;BME280;26963;42.666;23.366;2023-10-08T06:53:47;95322.41;;;18.26;35.92
40205;BME280;26963;42.666;23.366;2023-10-08T06:56:16;95299.72;;;18.52;35.58
40205;BME280;26963;42.666;23.366;2023-10-08T06:58:44;95313.91;;;18.83;34.37
40205;BME280;26963;42.666;23.366;2023-10-08T07:01:16;95295.44;;;18.97;34.00
40205;BME280;26963;42.666;23.366;2023-10-08T07:03:49;95299.63;;;19.19;33.57
40205;BME280;26963;42.666;23.366;2023-10-08T07:06:15;95322.25;;;19.48;32.75
40205;BME280;26963;42.666;23.366;2023-10-08T07:08:51;95319.16;;;19.75;32.88
40205;BME280;26963;42.666;23.366;2023-10-08T07:11:21;95255.06;;;19.70;32.58
40205;BME280;26963;42.666;23.366;2023-10-08T07:13:47;95268.94;;;19.93;32.40
40205;BME280;26963;42.666;23.366;2023-10-08T07:16:16;95286.03;;;20.22;31.95
40205;BME280;26963;42.666;23.366;2023-10-08T07:18:43;95312.69;;;20.45;31.71
40205;BME280;26963;42.666;23.366;2023-10-08T07:21:21;95314.72;;;20.35;31.67
40205;BME280;26963;42.666;23.366;2023-10-08T07:23:58;95310.00;;;20.32;32.10
40205;BME280;26963;42.666;23.366;2023-10-08T07:26:26;95300.44;;;20.67;31.33
40205;BME280;26963;42.666;23.366;2023-10-08T07:29:01;95275.94;;;20.79;31.24
40205;BME280;26963;42.666;23.366;2023-10-08T07:31:34;95299.63;;;21.43;30.27
40205;BME280;26963;42.666;23.366;2023-10-08T07:34:02;95286.47;;;21.45;30.00
40205;BME280;26963;42.666;23.366;2023-10-08T07:36:42;95241.06;;;21.49;29.59
40205;BME280;26963;42.666;23.366;2023-10-08T07:39:10;95226.06;;;21.39;29.82
40205;BME280;26963;42.666;23.366;2023-10-08T07:41:53;95241.25;;;21.56;29.99
40205;BME280;26963;42.666;23.366;2023-10-08T07:44:25;95222.91;;;21.37;29.55
40205;BME280;26963;42.666;23.366;2023-10-08T07:46:54;95249.34;;;21.72;29.65
40205;BME280;26963;42.666;23.366;2023-10-08T07:49:23;95274.47;;;22.01;29.58
40205;BME280;26963;42.666;23.366;2023-10-08T07:51:54;95257.47;;;22.08;29.62
40205;BME280;26963;42.666;23.366;2023-10-08T07:54:24;95223.53;;;22.02;29.44
40205;BME280;26963;42.666;23.366;2023-10-08T07:56:50;95238.56;;;22.35;29.13
40205;BME280;26963;42.666;23.366;2023-10-08T07:59:41;95251.53;;;22.84;28.55
40205;BME280;26963;42.666;23.366;2023-10-08T08:02:08;95218.25;;;22.98;28.04
40205;BME280;26963;42.666;23.366;2023-10-08T08:04:38;95250.44;;;23.35;27.33
40205;BME280;26963;42.666;23.366;2023-10-08T08:07:08;95244.41;;;23.22;27.15
40205;BME280;26963;42.666;23.366;2023-10-08T08:09:45;95207.56;;;23.12;27.12
40205;BME280;26963;42.666;23.366;2023-10-08T08:12:21;95217.56;;;23.28;27.27
40205;BME280;26963;42.666;23.366;2023-10-08T08:14:47;95141.34;;;22.66;27.17
40205;BME280;26963;42.666;23.366;2023-10-08T08:17:14;95235.06;;;23.23;27.41
40205;BME280;26963;42.666;23.366;2023-10-08T08:19:45;95226.28;;;23.14;27.47
40205;BME280;26963;42.666;23.366;2023-10-08T08:22:12;95236.00;;;23.35;27.15
40205;BME280;26963;42.666;23.366;2023-10-08T08:24:47;95228.13;;;23.29;27.12
40205;BME280;26963;42.666;23.366;2023-10-08T08:27:12;95227.50;;;23.40;27.33
40205;BME280;26963;42.666;23.366;2023-10-08T08:29:52;95219.97;;;23.60;26.76
40205;BME280;26963;42.666;23.366;2023-10-08T08:32:22;95208.63;;;23.88;26.21
40205;BME280;26963;42.666;23.366;2023-10-08T08:34:48;95219.56;;;24.19;26.18
40205;BME280;26963;42.666;23.366;2023-10-08T08:37:16;95218.69;;;24.45;25.47
40205;BME280;26963;42.666;23.366;2023-10-08T08:39:42;95184.38;;;24.55;25.15
40205;BME280;26963;42.666;23.366;2023-10-08T08:42:08;95210.91;;;24.88;24.47
40205;BME280;26963;42.666;23.366;2023-10-08T08:44:38;95197.94;;;24.82;24.57
40205;BME280;26963;42.666;23.366;2023-10-08T08:47:14;95175.25;;;24.81;23.89
40205;BME280;26963;42.666;23.366;2023-10-08T08:49:43;95199.75;;;25.15;23.36
40205;BME280;26963;42.666;23.366;2023-10-08T08:52:09;95165.31;;;25.14;22.45
40205;BME280;26963;42.666;23.366;2023-10-08T08:54:34;95164.78;;;25.43;21.86
40205;BME280;26963;42.666;23.366;2023-10-08T08:57:03;95181.38;;;25.79;21.69
40205;BME280;26963;42.666;23.366;2023-10-08T08:59:30;95179.47;;;25.90;21.29
40205;BME280;26963;42.666;23.366;2023-10-08T09:02:00;95198.75;;;26.08;20.96
40205;BME280;26963;42.666;23.366;2023-10-08T09:04:30;95200.34;;;26.16;21.72
40205;BME280;26963;42.666;23.366;2023-10-08T09:06:57;95146.13;;;25.77;21.49
40205;BME280;26963;42.666;23.366;2023-10-08T09:09:31;95175.97;;;25.93;21.01
40205;BME280;26963;42.666;23.366;2023-10-08T09:11:57;95179.47;;;25.94;21.02
40205;BME280;26963;42.666;23.366;2023-10-08T09:14:24;95195.53;;;25.95;21.25
40205;BME280;26963;42.666;23.366;2023-10-08T09:17:00;95191.59;;;25.85;21.52
40205;BME280;26963;42.666;23.366;2023-10-08T09:19:26;95172.66;;;25.59;21.86
40205;BME280;26963;42.666;23.366;2023-10-08T09:22:11;95189.88;;;25.55;21.46
40205;BME280;26963;42.666;23.366;2023-10-08T09:24:38;95138.81;;;25.26;22.18
40205;BME280;26963;42.666;23.366;2023-10-08T09:27:09;95178.50;;;25.53;21.81
40205;BME280;26963;42.666;23.366;2023-10-08T09:29:40;95138.06;;;25.29;21.87
40205;BME280;26963;42.666;23.366;2023-10-08T09:32:08;95182.94;;;25.76;21.85
40205;BME280;26963;42.666;23.366;2023-10-08T09:34:34;95167.31;;;25.87;21.57
40205;BME280;26963;42.666;23.366;2023-10-08T09:37:01;95121.06;;;25.75;21.25
40205;BME280;26963;42.666;23.366;2023-10-08T09:39:27;95108.94;;;25.76;20.86
40205;BME280;26963;42.666;23.366;2023-10-08T09:42:03;95152.19;;;26.23;21.04
40205;BME280;26963;42.666;23.366;2023-10-08T09:44:31;95152.19;;;26.26;21.08
40205;BME280;26963;42.666;23.366;2023-10-08T09:47:05;95137.72;;;26.40;20.97
40205;BME280;26963;42.666;23.366;2023-10-08T09:49:33;95161.28;;;26.77;20.45
40205;BME280;26963;42.666;23.366;2023-10-08T09:52:03;95144.44;;;26.90;20.09
40205;BME280;26963;42.666;23.366;2023-10-08T09:54:56;95100.88;;;26.70;20.44
40205;BME280;26963;42.666;23.366;2023-10-08T09:57:24;95137.75;;;27.09;20.05
40205;BME280;26963;42.666;23.366;2023-10-08T09:59:52;95142.84;;;27.07;19.95
40205;BME280;26963;42.666;23.366;2023-10-08T10:02:19;95139.31;;;27.06;19.56
40205;BME280;26963;42.666;23.366;2023-10-08T10:04:50;95140.13;;;26.96;20.15
40205;BME280;26963;42.666;23.366;2023-10-08T10:07:19;95139.31;;;26.92;20.07
40205;BME280;26963;42.666;23.366;2023-10-08T10:09:52;95126.00;;;26.86;20.13
40205;BME280;26963;42.666;23.366;2023-10-08T10:12:24;95115.41;;;26.70;20.39
40205;BME280;26963;42.666;23.366;2023-10-08T10:14:53;95140.88;;;26.60;20.82
40205;BME280;26963;42.666;23.366;2023-10-08T10:17:23;95096.97;;;26.31;21.18
40205;BME280;26963;42.666;23.366;2023-10-08T10:19:55;95135.38;;;26.57;21.42
40205;BME280;26963;42.666;23.366;2023-10-08T10:22:33;95022.44;;;25.82;21.70
40205;BME280;26963;42.666;23.366;2023-10-08T10:25:00;95123.25;;;26.58;21.97
40205;BME280;26963;42.666;23.366;2023-10-08T10:30:25;95111.09;;;26.80;21.88
40205;BME280;26963;42.666;23.366;2023-10-08T10:32:54;95089.94;;;26.77;21.00
40205;BME280;26963;42.666;23.366;2023-10-08T10:35:20;95082.88;;;26.76;21.10
40205;BME280;26963;42.666;23.366;2023-10-08T10:37:48;95100.09;;;26.91;21.85
40205;BME280;26963;42.666;23.366;2023-10-08T10:40:24;95094.97;;;27.04;21.01
40205;BME280;26963;42.666;23.366;2023-10-08T10:43:15;95093.03;;;27.01;20.95
40205;BME280;26963;42.666;23.366;2023-10-08T10:45:45;95091.47;;;27.00;21.65
40205;BME280;26963;42.666;23.366;2023-10-08T10:48:13;95104.44;;;26.99;21.67
40205;BME280;26963;42.666;23.366;2023-10-08T10:50:41;95075.00;;;26.93;22.17
40205;BME280;26963;42.666;23.366;2023-10-08T10:53:22;95035.00;;;26.66;22.17
40205;BME280;26963;42.666;23.366;2023-10-08T10:55:48;95068.34;;;26.94;22.25
40205;BME280;26963;42.666;23.366;2023-10-08T10:58:25;95061.69;;;26.88;21.70
40205;BME280;26963;42.666;23.366;2023-10-08T11:00:53;95023.66;;;26.61;21.78
40205;BME280;26963;42.666;23.366;2023-10-08T11:03:31;95018.56;;;26.48;22.10
40205;BME280;26963;42.666;23.366;2023-10-08T11:06:00;95058.56;;;26.78;22.22
40205;BME280;26963;42.666;23.366;2023-10-08T11:08:32;95049.16;;;26.79;22.35
40205;BME280;26963;42.666;23.366;2023-10-08T11:11:01;95065.22;;;26.84;22.20
40205;BME280;26963;42.666;23.366;2023-10-08T11:13:33;95071.47;;;26.96;22.16
40205;BME280;26963;42.666;23.366;2023-10-08T11:16:07;95018.94;;;26.72;22.17
40205;BME280;26963;42.666;23.366;2023-10-08T11:18:45;95035.41;;;26.83;21.60
40205;BME280;26963;42.666;23.366;2023-10-08T11:21:16;95011.47;;;26.69;21.97
40205;BME280;26963;42.666;23.366;2023-10-08T11:23:47;95055.78;;;26.93;22.47
40205;BME280;26963;42.666;23.366;2023-10-08T11:26:23;95046.00;;;26.81;22.11
40205;BME280;26963;42.666;23.366;2023-10-08T11:28:58;95051.09;;;26.90;22.43
40205;BME280;26963;42.666;23.366;2023-10-08T11:31:27;95039.34;;;26.85;22.05
40205;BME280;26963;42.666;23.366;2023-10-08T11:33:59;95041.28;;;26.89;22.30
40205;BME280;26963;42.666;23.366;2023-10-08T11:36:27;95014.63;;;26.64;22.40
40205;BME280;26963;42.666;23.366;2023-10-08T11:38:54;95051.50;;;26.84;22.31
40205;BME280;26963;42.666;23.366;2023-10-08T11:41:27;95036.22;;;26.80;22.76
40205;BME280;26963;42.666;23.366;2023-10-08T11:43:58;95023.66;;;26.57;22.50
40205;BME280;26963;42.666;23.366;2023-10-08T11:46:25;95053.84;;;26.72;22.31
40205;BME280;26963;42.666;23.366;2023-10-08T11:48:54;94988.03;;;26.25;22.71
40205;BME280;26963;42.666;23.366;2023-10-08T11:51:23;95046.00;;;26.63;23.12
40205;BME280;26963;42.666;23.366;2023-10-08T11:53:50;95042.09;;;26.49;22.71
40205;BME280;26963;42.666;23.366;2023-10-08T11:56:16;95035.81;;;26.38;22.94
40205;BME280;26963;42.666;23.366;2023-10-08T11:58:43;95008.78;;;26.08;23.62
40205;BME280;26963;42.666;23.366;2023-10-08T12:01:11;95026.44;;;26.17;23.38
40205;BME280;26963;42.666;23.366;2023-10-08T12:03:44;95024.84;;;26.05;23.68
40205;BME280;26963;42.666;23.366;2023-10-08T12:06:11;95018.94;;;25.96;23.50
40205;BME280;26963;42.666;23.366;2023-10-08T12:08:47;95022.44;;;25.86;23.95
40205;BME280;26963;42.666;23.366;2023-10-08T12:11:19;95009.09;;;25.70;24.23
40205;BME280;26963;42.666;23.366;2023-10-08T12:13:48;95032.66;;;26.00;24.32
40205;BME280;26963;42.666;23.366;2023-10-08T12:16:15;94983.28;;;25.78;24.31
40205;BME280;26963;42.666;23.366;2023-10-08T12:18:47;95021.72;;;26.14;23.96
40205;BME280;26963;42.666;23.366;2023-10-08T12:21:15;95028.78;;;26.23;24.39
40205;BME280;26963;42.666;23.366;2023-10-08T12:23:43;95028.00;;;26.33;24.15
40205;BME280;26963;42.666;23.366;2023-10-08T12:26:10;94990.38;;;26.15;24.10
40205;BME280;26963;42.666;23.366;2023-10-08T12:28:43;94986.47;;;26.24;24.46
40205;BME280;26963;42.666;23.366;2023-10-08T12:31:11;95018.97;;;26.40;23.61
40205;BME280;26963;42.666;23.366;2023-10-08T12:33:37;95035.44;;;26.43;23.99
40205;BME280;26963;42.666;23.366;2023-10-08T12:36:03;95028.78;;;26.44;23.65
40205;BME280;26963;42.666;23.366;2023-10-08T12:38:41;95037.00;;;26.44;23.76
40205;BME280;26963;42.666;23.366;2023-10-08T12:41:11;95027.59;;;26.31;23.51
40205;BME280;26963;42.666;23.366;2023-10-08T12:43:41;95026.81;;;26.23;24.17
40205;BME280;26963;42.666;23.366;2023-10-08T12:46:18;95038.97;;;26.18;24.08
40205;BME280;26963;42.666;23.366;2023-10-08T12:48:45;94987.59;;;25.86;24.26
40205;BME280;26963;42.666;23.366;2023-10-08T12:51:14;95027.56;;;25.98;24.21
40205;BME280;26963;42.666;23.366;2023-10-08T12:53:40;95020.88;;;25.85;24.67
40205;BME280;26963;42.666;23.366;2023-10-08T12:56:09;95014.59;;;25.73;24.83
40205;BME280;26963;42.666;23.366;2023-10-08T12:58:42;94980.88;;;25.48;24.78
40205;BME280;26963;42.666;23.366;2023-10-08T13:01:16;95018.47;;;25.69;24.66
40205;BME280;26963;42.666;23.366;2023-10-08T13:03:45;94954.16;;;25.19;24.96
40205;BME280;26963;42.666;23.366;2023-10-08T13:06:19;95019.25;;;25.59;25.09
40205;BME280;26963;42.666;23.366;2023-10-08T13:08:51;95023.97;;;25.62;25.33
40205;BME280;26963;42.666;23.366;2023-10-08T13:11:22;94968.28;;;25.29;25.26
40205;BME280;26963;42.666;23.366;2023-10-08T13:13:57;95018.50;;;25.65;24.88
40205;BME280;26963;42.666;23.366;2023-10-08T13:16:24;95000.44;;;25.50;24.65
40205;BME280;26963;42.666;23.366;2023-10-08T13:18:51;94975.38;;;25.37;24.65
40205;BME280;26963;42.666;23.366;2023-10-08T13:21:18;95014.56;;;25.63;24.89